Terminal Aerodrome Forecast
Issued by NWS

Home | Current Version | Previous Version | Text Only | Print | Product List | Glossary On
Versions: 1 2 3 4 5 6 7 8 9 10 11 12 13 14 15 16 17 18 19 20 21 22 23 24 25 26 27 28 29 30 31 32 33 34
000
FTUS43 KOAX 231848 AAA
TAFSNY
TAF AMD
KSNY 231848Z 2319/2418 02009KT 2SM BR OVC002
     FM232000 35006KT 1SM -RA BR OVC004
     FM240200 30008KT 2SM BR OVC015
     FM241200 31009KT 6SM BR BKN015=

USA.gov is the U.S. government's official web portal to all federal, state and local government web resources and services.